createdAt,value
2018-04-08T00:00:17.673Z,12.58
2018-04-08T00:02:46.693Z,12.54
2018-04-08T00:05:15.744Z,12.49
2018-04-08T00:07:44.999Z,12.43
2018-04-08T00:10:14.028Z,12.30
2018-04-08T00:12:43.367Z,12.28
2018-04-08T00:15:12.611Z,12.28
2018-04-08T00:17:41.701Z,12.24
2018-04-08T00:20:10.982Z,12.19
2018-04-08T00:22:39.969Z,12.16
2018-04-08T00:25:09.232Z,12.16
2018-04-08T00:27:38.552Z,12.12
2018-04-08T00:30:07.793Z,12.08
2018-04-08T00:32:37.063Z,12.04
2018-04-08T00:35:06.401Z,12.00
2018-04-08T00:37:35.852Z,11.94
2018-04-08T00:40:04.967Z,11.86
2018-04-08T00:42:35.295Z,11.82
2018-04-08T00:45:04.426Z,11.69
2018-04-08T00:47:33.459Z,11.69
2018-04-08T00:50:02.577Z,11.69
2018-04-08T00:52:31.584Z,11.68
2018-04-08T00:55:00.600Z,11.64
2018-04-08T00:57:31.415Z,11.58
2018-04-08T01:00:02.127Z,11.52
2018-04-08T01:02:32.910Z,11.48
2018-04-08T01:05:03.796Z,11.45
2018-04-08T01:07:34.868Z,11.43
2018-04-08T01:10:04.718Z,11.42
2018-04-08T01:12:36.323Z,11.44
2018-04-08T01:15:06.945Z,11.42
2018-04-08T01:17:37.952Z,11.38
2018-04-08T01:20:08.809Z,11.36
2018-04-08T01:22:39.867Z,11.33
2018-04-08T01:25:10.985Z,11.31
2018-04-08T01:27:41.850Z,11.28
2018-04-08T01:30:13.274Z,11.19
2018-04-08T01:32:43.929Z,11.09
2018-04-08T01:35:14.809Z,10.75
2018-04-08T01:37:45.843Z,10.66
2018-04-08T01:40:17.445Z,10.36
2018-04-08T01:42:48.327Z,10.34
2018-04-08T01:45:18.892Z,10.54
2018-04-08T01:47:50.663Z,10.64
2018-04-08T01:50:20.321Z,10.80
2018-04-08T01:52:51.884Z,10.81
2018-04-08T01:55:21.749Z,10.89
2018-04-08T01:57:52.474Z,10.97
2018-04-08T02:00:23.062Z,11.02
2018-04-08T02:02:54.602Z,11.04
2018-04-08T02:05:25.327Z,11.10
2018-04-08T02:07:55.735Z,11.15
2018-04-08T02:10:26.423Z,11.18
2018-04-08T02:12:57.299Z,11.20
2018-04-08T02:15:28.008Z,11.24
2018-04-08T02:17:59.959Z,11.24
2018-04-08T02:20:30.487Z,11.23
2018-04-08T02:22:59.852Z,11.28
2018-04-08T02:25:30.699Z,11.31
2018-04-08T02:28:01.511Z,11.40
2018-04-08T02:30:32.147Z,11.43
2018-04-08T02:33:03.166Z,11.52
2018-04-08T02:35:34.742Z,11.50
2018-04-08T02:38:05.453Z,11.51
2018-04-08T02:40:36.328Z,11.47
2018-04-08T02:43:07.768Z,11.47
2018-04-08T02:45:39.459Z,11.43
2018-04-08T02:48:10.329Z,11.41
2018-04-08T02:50:40.133Z,11.47
2018-04-08T02:53:10.879Z,11.57
2018-04-08T02:55:40.377Z,11.57
2018-04-08T02:58:11.035Z,11.57
2018-04-08T03:00:42.588Z,11.57
2018-04-08T03:03:13.454Z,11.48
2018-04-08T03:05:44.193Z,11.66
2018-04-08T03:08:15.962Z,11.61
2018-04-08T03:10:46.824Z,11.60
2018-04-08T03:13:16.806Z,11.60
2018-04-08T03:15:47.862Z,11.62
2018-04-08T03:18:18.743Z,11.62
2018-04-08T03:20:52.721Z,11.50
2018-04-08T03:23:22.053Z,11.49
2018-04-08T03:25:52.618Z,11.52
2018-04-08T03:28:23.280Z,11.54
2018-04-08T03:30:52.986Z,11.48
2018-04-08T03:33:24.087Z,11.41
2018-04-08T03:35:59.441Z,11.31
2018-04-08T03:38:28.757Z,11.26
2018-04-08T03:40:58.199Z,11.20
2018-04-08T03:43:27.761Z,11.24
2018-04-08T03:45:58.168Z,11.14
2018-04-08T03:48:29.284Z,11.08
2018-04-08T03:51:00.311Z,11.06
2018-04-08T03:53:30.905Z,11.06
2018-04-08T03:56:02.127Z,10.99
2018-04-08T03:58:33.140Z,11.01
2018-04-08T04:01:03.815Z,10.99
2018-04-08T04:03:34.864Z,10.94
2018-04-08T04:06:05.809Z,10.92
2018-04-08T04:08:36.968Z,10.88
2018-04-08T04:11:06.711Z,10.91
2018-04-08T04:13:38.403Z,10.95
2018-04-08T04:16:08.963Z,10.95
2018-04-08T04:18:50.319Z,10.83
2018-04-08T04:21:30.920Z,10.92
2018-04-08T04:24:10.800Z,10.83
2018-04-08T04:26:39.953Z,10.81
2018-04-08T04:29:08.735Z,10.81
2018-04-08T04:31:37.564Z,10.68
2018-04-08T04:34:06.752Z,10.58
2018-04-08T04:36:35.622Z,10.56
2018-04-08T04:39:04.275Z,10.59
2018-04-08T04:41:33.728Z,10.64
2018-04-08T04:44:03.047Z,10.71
2018-04-08T04:46:32.271Z,10.75
2018-04-08T04:49:01.575Z,10.77
2018-04-08T04:51:31.080Z,10.75
2018-04-08T04:54:00.319Z,10.75
2018-04-08T04:56:29.455Z,10.75
2018-04-08T04:58:58.938Z,10.75
2018-04-08T05:01:28.030Z,10.85
2018-04-08T05:03:57.167Z,10.78
2018-04-08T05:06:27.183Z,10.80
2018-04-08T05:08:58.031Z,10.86
2018-04-08T05:11:28.787Z,10.82
2018-04-08T05:14:00.325Z,10.87
2018-04-08T05:16:30.903Z,10.93
2018-04-08T05:19:01.790Z,11.02
2018-04-08T05:21:32.884Z,11.01
2018-04-08T05:24:03.796Z,11.00
2018-04-08T05:26:35.410Z,11.08
2018-04-08T05:29:06.177Z,11.14
2018-04-08T05:31:37.375Z,11.19
2018-04-08T05:34:08.145Z,11.23
2018-04-08T05:36:39.125Z,11.39
2018-04-08T05:39:10.784Z,11.45
2018-04-08T05:41:41.820Z,11.53
2018-04-08T05:44:12.386Z,11.63
2018-04-08T05:46:42.220Z,11.93
2018-04-08T05:49:13.033Z,11.97
2018-04-08T05:51:44.139Z,12.05
2018-04-08T05:54:15.592Z,12.12
2018-04-08T05:56:46.528Z,12.16
2018-04-08T05:59:16.033Z,12.25
2018-04-08T06:01:46.821Z,12.36
2018-04-08T06:04:17.804Z,12.50
2018-04-08T06:06:48.185Z,12.57
2018-04-08T06:09:18.920Z,12.68
2018-04-08T06:11:48.833Z,12.77
2018-04-08T06:14:20.404Z,12.80
2018-04-08T06:16:52.377Z,12.89
2018-04-08T06:19:23.823Z,12.92
2018-04-08T06:21:53.367Z,13.08
2018-04-08T06:24:24.411Z,13.18
2018-04-08T06:26:55.965Z,13.25
2018-04-08T06:29:26.667Z,13.38
2018-04-08T06:31:57.493Z,13.51
2018-04-08T06:34:27.953Z,13.61
2018-04-08T06:36:58.741Z,13.71
2018-04-08T06:39:29.595Z,13.81
2018-04-08T06:42:00.145Z,13.91
2018-04-08T06:44:31.165Z,14.00
2018-04-08T06:47:06.996Z,14.04
2018-04-08T06:49:35.816Z,14.11
2018-04-08T06:52:05.498Z,14.20
2018-04-08T06:54:35.024Z,14.34
2018-04-08T06:57:09.113Z,14.46
2018-04-08T06:59:38.481Z,14.56
2018-04-08T07:02:09.086Z,14.70
2018-04-08T07:04:40.547Z,14.81
2018-04-08T07:07:09.540Z,14.94
2018-04-08T07:09:41.029Z,15.07
2018-04-08T07:12:09.837Z,15.17
2018-04-08T07:14:40.356Z,15.30
2018-04-08T07:17:11.176Z,15.44
2018-04-08T07:19:42.000Z,15.55
2018-04-08T07:22:12.632Z,15.61
2018-04-08T07:24:43.320Z,15.77
2018-04-08T07:27:15.321Z,15.97
2018-04-08T07:29:44.191Z,16.13
2018-04-08T07:32:14.915Z,16.17
2018-04-08T07:34:46.688Z,16.38
2018-04-08T07:37:17.393Z,16.47
2018-04-08T07:39:48.180Z,16.58
2018-04-08T07:42:17.610Z,16.70
2018-04-08T07:44:47.034Z,16.78
2018-04-08T07:47:17.509Z,16.91
2018-04-08T07:49:48.462Z,17.01
2018-04-08T07:52:17.506Z,17.07
2018-04-08T07:54:46.647Z,17.18
2018-04-08T07:57:15.763Z,17.22
2018-04-08T07:59:44.819Z,17.31
2018-04-08T08:02:14.072Z,17.47
2018-04-08T08:04:43.027Z,17.64
2018-04-08T08:07:12.103Z,17.76
2018-04-08T08:09:41.388Z,17.85
2018-04-08T08:12:10.307Z,17.89
2018-04-08T08:14:39.538Z,17.87
2018-04-08T08:17:08.855Z,17.95
2018-04-08T08:19:37.869Z,18.00
2018-04-08T08:22:07.083Z,18.13
2018-04-08T08:24:36.127Z,18.18
2018-04-08T08:27:05.142Z,18.23
2018-04-08T08:29:34.258Z,18.22
2018-04-08T08:32:03.222Z,18.33
2018-04-08T08:34:32.344Z,18.34
2018-04-08T08:37:01.550Z,18.40
2018-04-08T08:39:30.621Z,18.40
2018-04-08T08:42:00.376Z,18.40
2018-04-08T08:44:29.910Z,18.61
2018-04-08T08:46:59.057Z,18.73
2018-04-08T08:49:28.080Z,19.01
2018-04-08T08:51:57.306Z,18.97
2018-04-08T08:54:26.491Z,19.16
2018-04-08T08:56:55.508Z,19.42
2018-04-08T08:59:24.600Z,19.49
2018-04-08T09:01:53.661Z,19.64
2018-04-08T09:04:22.596Z,19.61
2018-04-08T09:06:51.902Z,19.59
2018-04-08T09:09:21.043Z,19.78
2018-04-08T09:11:49.988Z,19.65
2018-04-08T09:14:19.184Z,19.65
2018-04-08T09:16:48.150Z,19.83
2018-04-08T09:19:19.596Z,19.93
2018-04-08T09:21:51.109Z,19.99
2018-04-08T09:24:20.511Z,20.02
2018-04-08T09:26:49.691Z,19.98
2018-04-08T09:29:18.726Z,19.99
2018-04-08T09:31:47.851Z,19.92
2018-04-08T09:34:16.845Z,20.00
2018-04-08T09:36:46.165Z,20.11
2018-04-08T09:39:15.567Z,20.13
2018-04-08T09:41:44.762Z,20.03
2018-04-08T09:44:13.968Z,20.21
2018-04-08T09:46:43.247Z,20.36
2018-04-08T09:49:12.201Z,20.49
2018-04-08T09:51:41.180Z,20.60
2018-04-08T09:54:20.060Z,20.69
2018-04-08T11:00:34.118Z,21.37
2018-04-08T11:03:03.171Z,21.52
2018-04-08T11:05:32.168Z,21.46
2018-04-08T11:08:01.264Z,21.35
2018-04-08T11:10:30.538Z,21.36
2018-04-08T11:12:59.504Z,21.50
2018-04-08T11:15:28.866Z,21.62
2018-04-08T11:17:58.106Z,21.90
2018-04-08T11:20:26.908Z,22.15
2018-04-08T11:22:55.984Z,22.34
2018-04-08T11:25:24.802Z,22.31
2018-04-08T11:27:54.022Z,22.45
2018-04-08T11:30:23.063Z,22.54
2018-04-08T11:32:52.671Z,22.80
2018-04-08T11:35:21.962Z,22.92
2018-04-08T11:37:51.063Z,22.95
2018-04-08T11:40:20.020Z,22.97
2018-04-08T11:42:48.993Z,23.21
2018-04-08T11:45:17.925Z,23.32
2018-04-08T11:47:46.902Z,23.30
2018-04-08T11:50:15.707Z,23.58
2018-04-08T11:52:44.801Z,23.47
2018-04-08T11:55:13.767Z,23.58
2018-04-08T11:57:42.814Z,23.64
2018-04-08T12:00:13.835Z,23.57
2018-04-08T12:02:42.738Z,23.73
2018-04-08T12:05:12.063Z,23.84
2018-04-08T12:07:41.410Z,23.80
2018-04-08T12:10:10.486Z,24.07
2018-04-08T12:12:39.692Z,24.05
2018-04-08T12:15:08.777Z,24.16
2018-04-08T12:17:37.743Z,24.23
2018-04-08T12:20:06.992Z,24.24
2018-04-08T12:22:35.853Z,24.17
2018-04-08T12:25:06.112Z,24.42
2018-04-08T12:27:34.911Z,23.90
2018-04-08T12:30:03.779Z,23.71
2018-04-08T12:32:32.659Z,23.51
2018-04-08T12:35:01.655Z,23.59
2018-04-08T12:37:30.632Z,23.53
2018-04-08T12:39:59.675Z,23.60
2018-04-08T12:42:28.676Z,23.56
2018-04-08T12:44:57.875Z,23.56
2018-04-08T12:47:26.857Z,23.47
2018-04-08T12:49:55.641Z,23.33
2018-04-08T12:52:24.680Z,23.14
2018-04-08T12:54:54.038Z,23.11
2018-04-08T12:57:23.228Z,22.98
2018-04-08T12:59:52.533Z,22.95
2018-04-08T13:02:21.588Z,22.80
2018-04-08T13:04:50.555Z,22.83
2018-04-08T13:07:19.957Z,23.01
2018-04-08T13:09:48.975Z,22.99
2018-04-08T13:12:17.772Z,22.79
2018-04-08T13:14:47.029Z,22.85
2018-04-08T13:17:16.183Z,22.81
2018-04-08T13:19:45.268Z,22.72
2018-04-08T13:22:14.607Z,22.45
2018-04-08T13:24:43.905Z,22.55
2018-04-08T13:27:12.908Z,22.43
2018-04-08T13:29:42.074Z,22.32
2018-04-08T13:32:11.047Z,22.51
2018-04-08T13:34:40.351Z,22.52
2018-04-08T13:37:09.415Z,22.61
2018-04-08T13:39:38.805Z,22.53
2018-04-08T13:42:08.038Z,22.50
2018-04-08T13:44:37.530Z,22.44
2018-04-08T13:47:06.592Z,22.49
2018-04-08T13:49:35.590Z,22.51
2018-04-08T13:52:04.664Z,22.45
2018-04-08T13:54:35.302Z,22.48
